MOOI WEER BOXTEL

Weerstation in Boxtel

Actuele weerinformatie en voorspellingen


Onweer radar Meer informatie blitzortung!


Regen radar Meer informatie rain snow radar


Meer informatie

Template documentation
and downloads

Weblog Hans on Experience

Profiel Hans Mestrum



Het weer levert geen direct gevaar op.    Er zijn geen waarschuwingen afgegeven.

METAR rapporten vliegvelden

   
EHEH - Eindhoven
Gewijzigd: 21-02-2018 03:47
Nevel, Bewolking  
Nevel, Bewolking  
   Wind: NNO 13 km/h
Wind: NNO 13 km/h
Temperatuur: -3°C
Voelt als: -8°C
Dauwpunt: -5°C
Vochtigheid: 86%
Barometer: 1024 hPa
Bewolking: Bewolking
Zicht: 5 km
Bewolking: Bewolking 22000 ft
EHEH 210247Z AUTO 03007KT 010V070 4800 BR OVC220 M03/M05 Q1024 GRN
EHVK - Volkel
Gewijzigd: 21-02-2018 03:55
Nevel, Bewolking  
Nevel, Bewolking  
   Wind: NNO 9.3 km/h
Wind: NNO 9.3 km/h
Temperatuur: -2°C
Voelt als: -6°C
Dauwpunt: -4°C
Vochtigheid: 86%
Barometer: 1024 hPa
Bewolking: Bewolking
Zicht: 6 km
Bewolking: Bewolking 22000 ft
EHVK 210255Z AUTO 03005KT 6000 BR OVC220 M02/M04 Q1024 WHT
EBAW - Antwerpen
Gewijzigd: 21-02-2018 03:50
Helder  
Helder  
   Wind: Noorden 9.3 km/h
Wind: Noorden 9.3 km/h
Temperatuur: -1°C
Voelt als: -4°C
Dauwpunt: -3°C
Vochtigheid: 86%
Barometer: 1024 hPa
Bewolking: Helder
Zicht: 5 km
Bewolking: Helder
EBAW 210250Z AUTO 01005KT 5000 // NCD M01/M03 Q1024
EHBK - Maastricht
Gewijzigd: 21-02-2018 03:55
Nevel, Grotendeels bewolkt  
Nevel, Grotendeels bewolkt  
   Wind: NNO 20.4 km/h
Wind: NNO 20.4 km/h
Temperatuur: -2°C
Voelt als: -8°C
Dauwpunt: -4°C
Vochtigheid: 86%
Barometer: 1023 hPa
Bewolking: Grotendeels bewolkt
Zicht: 5 km
Bewolking: Grotendeels bewolkt 2900 ft
EHBK 210255Z AUTO 02011KT 350V050 5000 BR BKN029 M02/M04 Q1023
ELLX - Luxemburg
Gewijzigd: 21-02-2018 03:50
Nevel, Licht bewolkt  
Nevel, Licht bewolkt  
   Wind: NO 18.5 km/h
Wind: NO 18.5 km/h
Temperatuur: -2°C
Voelt als: -8°C
Dauwpunt: -5°C
Vochtigheid: 80%
Barometer: 1019 hPa
Bewolking: Licht bewolkt
Zicht: 5 km
Bewolking: Licht bewolkt 3000 ft
ELLX 210250Z 04010KT 4500 BR FEW030 M02/M05 Q1019 NOSIG
 

Script ontwikkeld door  Saratoga-weather.org Aangepast voor de template door  Weerstation Leuven

U vindt ons ook hier:

Het Weer Aktueel

UK Metoffice

European Weather Network

Weather Underground

AWEKAS

Citizen Weather Observer Program (CWOP)

HAMweather, WeatherForYou, PWS Weather

Apparatuur in gebruik:

Weerstation
Davis Vue ISS

Weerprogramma
Meteobridge

Weercomputer
Asus WL -330N3G

Webleverancier
Weerhuisje.nl

Davis Vue ISS

Meteobridge

Asus WL -330N3G

Weerhuisje.nl